Time;durP1;ratioP1;P1;durP2;ratioP2;P2;SDS_P1;SDS_P2;PMS_P1;PMS_P2;Temp;Humidity;BMP_temperature;BMP_pressure;BME280_temperature;BME280_humidity;BME280_pressure;Samples;Min_cycle;Max_cycle;Signal;HPM_P1;HPM_P2
2023/04/22 00:00:50;;;;;;;8.55;2.17;;;;;;;;;;4972928;28;20039;-62
2023/04/22 00:03:21;;;;;;;8.32;2.10;;;;;;;;;;4970966;28;20051;-62
2023/04/22 00:05:52;;;;;;;8.52;2.42;;;;;;;;;;4954638;28;20061;-64
2023/04/22 00:08:22;;;;;;;10.00;2.58;;;;;;;;;;4954810;28;20055;-61
2023/04/22 00:10:52;;;;;;;10.25;2.60;;;;;;;;;;4964670;28;20407;-62
2023/04/22 00:13:22;;;;;;;6.22;2.60;;;;;;;;;;4990589;28;20054;-62
2023/04/22 00:15:53;;;;;;;10.50;3.30;;;;;;;;;;4990498;28;20058;-64
2023/04/22 00:18:23;;;;;;;9.48;4.00;;;;;;;;;;4942317;28;20066;-64
2023/04/22 00:20:53;;;;;;;14.48;4.30;;;;;;;;;;4990367;28;20058;-63
2023/04/22 00:23:23;;;;;;;12.93;4.38;;;;;;;;;;4990355;28;20426;-63
2023/04/22 00:25:53;;;;;;;13.27;4.65;;;;;;;;;;4989735;28;20045;-63
2023/04/22 00:28:23;;;;;;;14.43;5.30;;;;;;;;;;4990231;28;20057;-63
2023/04/22 00:30:54;;;;;;;15.93;4.97;;;;;;;;;;4957624;28;20529;-63
2023/04/22 00:33:25;;;;;;;13.40;5.40;;;;;;;;;;4926123;28;20055;-65
2023/04/22 00:35:55;;;;;;;18.50;6.05;;;;;;;;;;4990232;28;20063;-65
2023/04/22 00:38:26;;;;;;;18.70;5.32;;;;;;;;;;4990172;28;20053;-65
2023/04/22 00:40:56;;;;;;;16.13;6.03;;;;;;;;;;4976214;28;20497;-63
2023/04/22 00:43:26;;;;;;;13.05;5.63;;;;;;;;;;5013254;28;20060;-62
2023/04/22 00:45:57;;;;;;;16.77;5.65;;;;;;;;;;4973777;28;20068;-63
2023/04/22 00:48:29;;;;;;;13.77;5.90;;;;;;;;;;4990134;28;20062;-62
2023/04/22 00:50:59;;;;;;;21.13;6.57;;;;;;;;;;4973507;28;20558;-62
2023/04/22 00:53:29;;;;;;;16.75;6.28;;;;;;;;;;4971516;28;20053;-63
2023/04/22 00:55:59;;;;;;;15.13;6.07;;;;;;;;;;4960525;28;20081;-65
2023/04/22 00:58:30;;;;;;;14.25;5.55;;;;;;;;;;4992658;28;20497;-62
2023/04/22 01:01:00;;;;;;;11.38;5.15;;;;;;;;;;5009060;28;20080;-63
2023/04/22 01:03:31;;;;;;;13.65;5.60;;;;;;;;;;4960288;28;20577;-63
2023/04/22 01:06:02;;;;;;;14.38;5.50;;;;;;;;;;5009001;28;20450;-62
2023/04/22 01:08:35;;;;;;;15.38;5.78;;;;;;;;;;5009203;28;20045;-62
2023/04/22 01:11:06;;;;;;;16.23;5.25;;;;;;;;;;4913837;28;20050;-67
2023/04/22 01:13:37;;;;;;;10.98;5.47;;;;;;;;;;5002890;28;20058;-63
2023/04/22 01:16:09;;;;;;;13.23;5.07;;;;;;;;;;5008977;28;20142;-62
2023/04/22 01:18:41;;;;;;;11.15;5.18;;;;;;;;;;4966099;28;20047;-62
2023/04/22 01:21:11;;;;;;;18.35;5.90;;;;;;;;;;4931459;29;20542;-63
2023/04/22 01:23:42;;;;;;;15.45;5.85;;;;;;;;;;4900743;29;20056;-62
2023/04/22 01:26:12;;;;;;;14.68;5.35;;;;;;;;;;4931499;29;20059;-62
2023/04/22 01:28:42;;;;;;;12.75;4.80;;;;;;;;;;4902351;29;20048;-63
2023/04/22 01:31:13;;;;;;;16.65;5.20;;;;;;;;;;4880484;29;20052;-65
2023/04/22 01:33:44;;;;;;;12.82;5.05;;;;;;;;;;4912476;29;20060;-62
2023/04/22 01:36:14;;;;;;;13.18;5.72;;;;;;;;;;4911768;29;20460;-62
2023/04/22 01:38:44;;;;;;;16.50;6.05;;;;;;;;;;4922808;29;20505;-62
2023/04/22 01:41:15;;;;;;;17.00;5.78;;;;;;;;;;4931434;29;20527;-62
2023/04/22 01:43:45;;;;;;;15.57;5.45;;;;;;;;;;4899984;29;20051;-62
2023/04/22 01:46:17;;;;;;;14.18;5.38;;;;;;;;;;4880268;29;20674;-65
2023/04/22 01:48:50;;;;;;;10.82;4.63;;;;;;;;;;4913187;29;20056;-62
2023/04/22 01:51:25;;;;;;;12.00;4.45;;;;;;;;;;4911760;29;20466;-61
2023/04/22 01:53:56;;;;;;;14.05;5.05;;;;;;;;;;4893105;29;20053;-62
2023/04/22 01:56:27;;;;;;;11.07;4.43;;;;;;;;;;4874241;29;20064;-63
2023/04/22 01:58:57;;;;;;;15.38;4.97;;;;;;;;;;4874264;29;20064;-63
2023/04/22 02:01:30;;;;;;;11.65;4.55;;;;;;;;;;4874210;29;20052;-63
2023/04/22 02:04:00;;;;;;;13.45;5.20;;;;;;;;;;4874365;29;20070;-63
2023/04/22 02:06:31;;;;;;;16.85;4.68;;;;;;;;;;4894892;29;20189;-62
2023/04/22 02:09:04;;;;;;;14.35;4.35;;;;;;;;;;4874271;29;20052;-63
2023/04/22 02:11:34;;;;;;;17.33;4.32;;;;;;;;;;4874107;29;20128;-62
2023/04/22 02:14:04;;;;;;;12.93;4.32;;;;;;;;;;4863824;29;20058;-63
2023/04/22 02:16:35;;;;;;;13.02;4.25;;;;;;;;;;4855254;29;20057;-62
2023/04/22 02:19:05;;;;;;;14.32;3.95;;;;;;;;;;4825196;29;20066;-63
2023/04/22 02:21:35;;;;;;;11.35;4.38;;;;;;;;;;4842208;29;20735;-62
2023/04/22 02:24:05;;;;;;;9.60;4.38;;;;;;;;;;4843358;29;20061;-62
2023/04/22 02:26:35;;;;;;;14.52;4.40;;;;;;;;;;4843347;29;20061;-62
2023/04/22 02:29:05;;;;;;;13.13;4.95;;;;;;;;;;4837288;29;20523;-62
2023/04/22 02:31:35;;;;;;;10.18;4.25;;;;;;;;;;4876818;29;20561;-62
2023/04/22 02:34:05;;;;;;;10.35;4.43;;;;;;;;;;4855522;29;20061;-62
2023/04/22 02:36:35;;;;;;;15.35;4.38;;;;;;;;;;4855745;29;20065;-62
2023/04/22 02:39:07;;;;;;;12.10;4.13;;;;;;;;;;4836927;29;20533;-62
2023/04/22 02:41:38;;;;;;;10.50;4.30;;;;;;;;;;4807179;29;20058;-64
2023/04/22 02:44:08;;;;;;;12.05;4.22;;;;;;;;;;4858028;29;20542;-63
2023/04/22 02:46:39;;;;;;;12.63;3.90;;;;;;;;;;4858489;29;20060;-62
2023/04/22 02:49:09;;;;;;;9.75;4.53;;;;;;;;;;4867464;29;20411;-62
2023/04/22 02:51:40;;;;;;;12.60;3.80;;;;;;;;;;4895801;29;20049;-62
2023/04/22 02:54:10;;;;;;;11.23;4.22;;;;;;;;;;4856811;29;20057;-64
2023/04/22 02:56:40;;;;;;;10.45;3.88;;;;;;;;;;4892513;29;20061;-65
2023/04/22 02:59:11;;;;;;;9.10;3.65;;;;;;;;;;4864329;29;20050;-62
2023/04/22 03:01:41;;;;;;;11.13;3.67;;;;;;;;;;4895825;29;20075;-62
2023/04/22 03:04:20;;;;;;;11.57;3.70;;;;;;;;;;4876717;29;20068;-65
2023/04/22 03:06:52;;;;;;;10.18;3.33;;;;;;;;;;4846657;29;20061;-62
2023/04/22 03:09:24;;;;;;;9.40;3.70;;;;;;;;;;4842866;29;20053;-62
2023/04/22 03:11:55;;;;;;;7.88;3.30;;;;;;;;;;4839248;29;20049;-63
2023/04/22 03:14:25;;;;;;;9.00;3.50;;;;;;;;;;4821209;29;20054;-62
2023/04/22 03:16:56;;;;;;;7.80;3.30;;;;;;;;;;4801957;29;20071;-62
2023/04/22 03:19:26;;;;;;;9.07;3.47;;;;;;;;;;4801729;29;20530;-62
2023/04/22 03:21:58;;;;;;;10.23;4.00;;;;;;;;;;4814826;29;20580;-62
2023/04/22 03:24:28;;;;;;;13.40;3.70;;;;;;;;;;4822868;29;20055;-65
2023/04/22 03:27:03;;;;;;;7.43;3.00;;;;;;;;;;4821267;29;20059;-62
2023/04/22 03:29:33;;;;;;;8.35;3.20;;;;;;;;;;4839552;29;20054;-62
2023/04/22 03:32:03;;;;;;;9.73;3.42;;;;;;;;;;4836543;29;20058;-62
2023/04/22 03:34:35;;;;;;;9.93;3.47;;;;;;;;;;4839322;29;20054;-62
2023/04/22 03:37:09;;;;;;;6.80;3.33;;;;;;;;;;4828321;29;20415;-62
2023/04/22 03:39:39;;;;;;;13.98;3.55;;;;;;;;;;4819199;29;20436;-62
2023/04/22 03:42:13;;;;;;;9.18;3.05;;;;;;;;;;4780012;29;20054;-62
2023/04/22 03:44:44;;;;;;;12.60;3.70;;;;;;;;;;4767237;30;20071;-63
2023/04/22 03:47:20;;;;;;;6.93;2.85;;;;;;;;;;4802729;29;20066;-65
2023/04/22 03:49:56;;;;;;;9.88;3.25;;;;;;;;;;4832792;29;20503;-62
2023/04/22 03:52:26;;;;;;;9.60;2.97;;;;;;;;;;4820537;29;20069;-62
2023/04/22 03:54:59;;;;;;;8.80;3.10;;;;;;;;;;4820601;29;20065;-62
2023/04/22 03:57:31;;;;;;;8.27;2.88;;;;;;;;;;4820818;29;20058;-62
2023/04/22 04:00:03;;;;;;;12.32;2.80;;;;;;;;;;4834661;29;20054;-62
2023/04/22 04:02:41;;;;;;;12.25;3.33;;;;;;;;;;4826228;29;20443;-62
2023/04/22 04:05:16;;;;;;;8.15;2.95;;;;;;;;;;4820660;29;20054;-62
2023/04/22 04:07:47;;;;;;;7.80;3.25;;;;;;;;;;4820460;29;20055;-62
2023/04/22 04:10:17;;;;;;;8.68;2.90;;;;;;;;;;4805611;29;20078;-62
2023/04/22 04:12:51;;;;;;;6.82;2.80;;;;;;;;;;4789586;29;20065;-62
2023/04/22 04:15:23;;;;;;;6.53;2.75;;;;;;;;;;4789280;29;20059;-62
2023/04/22 04:17:55;;;;;;;12.57;2.78;;;;;;;;;;4784097;30;20643;-62
2023/04/22 04:20:27;;;;;;;9.38;3.00;;;;;;;;;;4784317;29;20051;-62
2023/04/22 04:22:57;;;;;;;25.48;3.85;;;;;;;;;;4766362;30;20060;-63
2023/04/22 04:25:29;;;;;;;6.80;2.58;;;;;;;;;;4748455;30;20063;-62
2023/04/22 04:28:09;;;;;;;7.43;2.75;;;;;;;;;;4763550;30;20059;-63
2023/04/22 04:30:40;;;;;;;8.30;2.55;;;;;;;;;;4748510;30;20095;-65
2023/04/22 04:33:11;;;;;;;7.40;2.53;;;;;;;;;;4773595;30;20055;-64
2023/04/22 04:35:43;;;;;;;7.45;2.92;;;;;;;;;;4789477;29;20055;-62
2023/04/22 04:38:17;;;;;;;7.15;2.33;;;;;;;;;;4787324;29;20055;-63
2023/04/22 04:40:49;;;;;;;6.88;2.45;;;;;;;;;;4766253;30;20413;-63
2023/04/22 04:43:24;;;;;;;8.13;2.90;;;;;;;;;;4739481;30;20051;-65
2023/04/22 04:46:07;;;;;;;8.18;2.85;;;;;;;;;;4734673;30;20063;-62
2023/04/22 04:48:38;;;;;;;6.85;2.60;;;;;;;;;;4699017;30;20527;-62
2023/04/22 04:51:10;;;;;;;7.85;2.50;;;;;;;;;;4740010;30;20052;-62
2023/04/22 04:53:47;;;;;;;8.57;3.10;;;;;;;;;;4744495;30;20063;-62
2023/04/22 04:56:17;;;;;;;7.28;2.75;;;;;;;;;;4779228;30;20066;-61
2023/04/22 04:58:49;;;;;;;7.32;2.55;;;;;;;;;;4810284;29;20475;-63
2023/04/22 05:01:22;;;;;;;7.63;2.53;;;;;;;;;;4772791;29;20210;-64
2023/04/22 05:03:54;;;;;;;7.25;2.42;;;;;;;;;;4769158;30;20059;-61
2023/04/22 05:06:25;;;;;;;6.75;2.33;;;;;;;;;;4800854;29;20925;-61
2023/04/22 05:09:01;;;;;;;10.05;2.65;;;;;;;;;;4790714;29;20062;-61
2023/04/22 05:11:31;;;;;;;5.80;2.15;;;;;;;;;;4805958;29;20059;-62
2023/04/22 05:14:06;;;;;;;6.57;2.50;;;;;;;;;;4787846;29;20058;-61
2023/04/22 05:16:40;;;;;;;7.90;2.60;;;;;;;;;;4801186;29;20420;-62
2023/04/22 05:19:10;;;;;;;9.90;2.40;;;;;;;;;;4789580;29;20059;-67
2023/04/22 05:21:41;;;;;;;7.65;2.38;;;;;;;;;;4801338;29;20618;-63
2023/04/22 05:24:12;;;;;;;6.60;2.20;;;;;;;;;;4797013;29;20051;-64
2023/04/22 05:26:43;;;;;;;7.07;2.97;;;;;;;;;;4759148;30;20464;-61
2023/04/22 05:29:17;;;;;;;6.22;2.20;;;;;;;;;;4783167;30;20062;-63
2023/04/22 05:31:48;;;;;;;7.15;2.80;;;;;;;;;;4754117;30;20062;-62
2023/04/22 05:34:18;;;;;;;9.95;2.78;;;;;;;;;;4745529;30;20505;-61
2023/04/22 05:36:48;;;;;;;9.05;2.90;;;;;;;;;;4760130;30;20058;-62
2023/04/22 05:39:19;;;;;;;10.00;3.15;;;;;;;;;;4775581;30;20513;-62
2023/04/22 05:41:50;;;;;;;9.18;3.30;;;;;;;;;;4775778;30;20393;-61
2023/04/22 05:44:20;;;;;;;11.25;3.13;;;;;;;;;;4765381;30;20055;-62
2023/04/22 05:46:51;;;;;;;10.50;3.17;;;;;;;;;;4767842;30;20051;-64
2023/04/22 05:49:21;;;;;;;8.20;3.08;;;;;;;;;;4765305;30;20220;-66
2023/04/22 05:52:14;;;;;;;11.35;3.47;;;;;;;;;;4764942;30;20056;-62
2023/04/22 05:54:56;;;;;;;10.32;3.03;;;;;;;;;;4725513;30;20063;-62
2023/04/22 05:57:26;;;;;;;10.23;3.10;;;;;;;;;;4770998;30;20056;-62
2023/04/22 05:59:59;;;;;;;11.90;3.33;;;;;;;;;;4787824;29;20067;-62
2023/04/22 06:02:29;;;;;;;7.60;3.22;;;;;;;;;;4770557;29;20068;-62
2023/04/22 06:04:59;;;;;;;9.20;3.53;;;;;;;;;;4749185;30;20064;-64
2023/04/22 06:07:30;;;;;;;8.85;3.25;;;;;;;;;;4782895;29;20484;-65
2023/04/22 06:10:00;;;;;;;7.90;2.97;;;;;;;;;;4765066;30;20059;-62
2023/04/22 06:12:33;;;;;;;;;;;;;;;;;;4765785;30;20082;-61
2023/04/22 06:15:04;;;;;;;7.10;2.90;;;;;;;;;;4786433;29;19925;-62
2023/04/22 06:17:35;;;;;;;6.97;3.38;;;;;;;;;;4765107;29;20052;-62
2023/04/22 06:20:06;;;;;;;7.70;2.72;;;;;;;;;;4771151;29;20059;-62
2023/04/22 06:22:36;;;;;;;7.80;2.88;;;;;;;;;;4796460;29;20058;-62
2023/04/22 06:25:08;;;;;;;8.10;2.67;;;;;;;;;;4757083;30;20058;-62
2023/04/22 06:27:39;;;;;;;9.35;2.88;;;;;;;;;;4785567;30;20144;-62
2023/04/22 06:30:10;;;;;;;7.00;3.03;;;;;;;;;;4804330;29;20051;-62
2023/04/22 06:32:41;;;;;;;9.32;3.15;;;;;;;;;;4822080;29;20058;-63
2023/04/22 06:35:11;;;;;;;6.25;2.78;;;;;;;;;;4822568;29;20054;-63
2023/04/22 06:37:41;;;;;;;6.57;2.95;;;;;;;;;;4792243;29;20131;-63
2023/04/22 06:40:11;;;;;;;9.77;3.55;;;;;;;;;;4822266;29;20058;-62
2023/04/22 06:42:47;;;;;;;8.48;3.20;;;;;;;;;;4808139;29;20055;-62
2023/04/22 06:45:20;;;;;;;7.03;3.00;;;;;;;;;;4796592;29;20061;-62
2023/04/22 06:48:01;;;;;;;12.27;3.15;;;;;;;;;;4821969;29;20058;-61
2023/04/22 06:50:46;;;;;;;10.68;3.85;;;;;;;;;;4821946;29;20050;-63
2023/04/22 06:53:16;;;;;;;9.48;3.60;;;;;;;;;;4803783;29;20531;-61
2023/04/22 06:55:46;;;;;;;10.35;3.88;;;;;;;;;;4791002;29;20440;-62
2023/04/22 06:58:16;;;;;;;8.63;3.40;;;;;;;;;;4811133;29;20055;-62
2023/04/22 07:00:46;;;;;;;9.38;3.65;;;;;;;;;;4835084;29;20065;-62
2023/04/22 07:03:16;;;;;;;8.77;3.75;;;;;;;;;;4827637;29;20063;-64
2023/04/22 07:05:56;;;;;;;11.77;4.28;;;;;;;;;;4858421;29;20053;-62
2023/04/22 07:08:26;;;;;;;11.18;3.75;;;;;;;;;;4858549;29;20058;-62
2023/04/22 07:10:56;;;;;;;10.00;3.88;;;;;;;;;;4844947;29;20054;-62
2023/04/22 07:13:45;;;;;;;10.07;4.30;;;;;;;;;;4827120;29;20149;-62
2023/04/22 07:16:15;;;;;;;10.05;4.22;;;;;;;;;;4840223;29;20065;-63
2023/04/22 07:18:45;;;;;;;9.18;3.22;;;;;;;;;;4856359;29;20061;-63
2023/04/22 07:21:16;;;;;;;13.82;4.10;;;;;;;;;;4858857;29;20447;-62
2023/04/22 07:23:46;;;;;;;8.25;3.58;;;;;;;;;;4858677;29;20554;-63
2023/04/22 07:26:17;;;;;;;8.65;3.22;;;;;;;;;;4835082;29;20569;-62
2023/04/22 07:28:47;;;;;;;9.60;2.58;;;;;;;;;;4820447;29;20058;-65
2023/04/22 07:31:17;;;;;;;8.13;2.45;;;;;;;;;;4870481;29;20436;-61
2023/04/22 07:33:47;;;;;;;6.30;2.70;;;;;;;;;;4876770;29;20056;-65
2023/04/22 07:36:18;;;;;;;10.82;2.92;;;;;;;;;;4888706;29;20537;-62
2023/04/22 07:38:48;;;;;;;5.18;2.60;;;;;;;;;;4901913;29;20052;-63
2023/04/22 07:41:18;;;;;;;8.82;3.15;;;;;;;;;;4933281;29;20064;-62
2023/04/22 07:43:48;;;;;;;7.70;3.47;;;;;;;;;;4955890;28;20063;-62
2023/04/22 07:46:18;;;;;;;8.85;3.47;;;;;;;;;;4971668;28;20419;-63
2023/04/22 07:48:48;;;;;;;5.47;2.53;;;;;;;;;;4971839;28;20046;-63
2023/04/22 07:51:18;;;;;;;7.50;2.85;;;;;;;;;;4971390;28;20070;-62
2023/04/22 07:53:48;;;;;;;5.88;2.35;;;;;;;;;;4971650;28;20064;-62
2023/04/22 07:56:18;;;;;;;6.20;2.33;;;;;;;;;;4972697;28;20050;-62
2023/04/22 07:58:48;;;;;;;6.50;2.35;;;;;;;;;;4979123;28;20418;-62
2023/04/22 08:01:18;;;;;;;6.45;2.83;;;;;;;;;;4978689;28;20061;-62
2023/04/22 08:03:49;;;;;;;7.28;2.30;;;;;;;;;;4978331;28;20065;-62
2023/04/22 08:06:19;;;;;;;7.97;2.40;;;;;;;;;;5012670;28;20540;-62
2023/04/22 08:08:49;;;;;;;7.78;2.10;;;;;;;;;;4962225;28;20498;-62
2023/04/22 08:11:19;;;;;;;5.32;2.42;;;;;;;;;;4958116;28;20138;-62
2023/04/22 08:13:49;;;;;;;4.78;1.88;;;;;;;;;;4942017;28;20918;-62
2023/04/22 08:16:20;;;;;;;5.68;2.40;;;;;;;;;;4974740;28;20081;-62
2023/04/22 08:18:51;;;;;;;9.88;2.40;;;;;;;;;;4990630;28;20050;-62
2023/04/22 08:21:21;;;;;;;6.40;2.15;;;;;;;;;;4990648;28;20426;-63
2023/04/22 08:23:52;;;;;;;7.32;1.98;;;;;;;;;;4970906;28;20062;-63
2023/04/22 08:26:22;;;;;;;4.47;2.10;;;;;;;;;;4971301;28;20054;-62
2023/04/22 08:28:52;;;;;;;5.25;2.13;;;;;;;;;;4970948;28;20522;-62
2023/04/22 08:31:22;;;;;;;6.03;1.90;;;;;;;;;;4951417;29;20523;-62
2023/04/22 08:33:52;;;;;;;6.63;2.00;;;;;;;;;;4888542;29;20066;-62
2023/04/22 08:36:26;;;;;;;5.47;2.20;;;;;;;;;;4951390;29;20062;-62
2023/04/22 08:38:56;;;;;;;5.00;1.88;;;;;;;;;;4951700;29;20055;-62
2023/04/22 08:41:27;;;;;;;5.22;2.00;;;;;;;;;;4950423;28;20051;-63
2023/04/22 08:43:58;;;;;;;9.32;2.00;;;;;;;;;;4951352;29;20086;-62
2023/04/22 08:46:30;;;;;;;4.68;1.83;;;;;;;;;;4951458;29;20070;-62
2023/04/22 08:49:02;;;;;;;4.38;1.75;;;;;;;;;;4928989;28;20050;-62
2023/04/22 08:51:32;;;;;;;5.75;1.85;;;;;;;;;;4938593;28;20054;-63
2023/04/22 08:54:04;;;;;;;4.93;1.90;;;;;;;;;;4922430;28;20058;-63
2023/04/22 08:56:35;;;;;;;6.85;1.80;;;;;;;;;;4970520;28;20062;-64
2023/04/22 08:59:06;;;;;;;4.88;2.00;;;;;;;;;;4977345;28;20073;-62
2023/04/22 09:01:40;;;;;;;6.30;1.73;;;;;;;;;;4989708;28;20394;-63
2023/04/22 09:04:13;;;;;;;5.43;2.22;;;;;;;;;;4941541;28;20384;-63
2023/04/22 09:06:43;;;;;;;7.03;1.75;;;;;;;;;;4989937;28;20483;-62
2023/04/22 09:09:13;;;;;;;5.20;1.60;;;;;;;;;;5015132;28;20065;-62
2023/04/22 09:11:43;;;;;;;4.07;1.50;;;;;;;;;;4980448;28;20061;-63
2023/04/22 09:14:15;;;;;;;4.88;1.70;;;;;;;;;;5013097;28;20050;-62
2023/04/22 09:16:49;;;;;;;5.78;2.03;;;;;;;;;;5012765;28;20053;-62
2023/04/22 09:19:24;;;;;;;6.32;2.25;;;;;;;;;;5031062;28;20388;-63
2023/04/22 09:21:58;;;;;;;7.70;1.67;;;;;;;;;;5012584;28;20053;-62
2023/04/22 09:24:29;;;;;;;5.10;1.83;;;;;;;;;;5031307;28;20038;-62
2023/04/22 09:27:02;;;;;;;3.95;1.70;;;;;;;;;;5031115;28;20041;-68
2023/04/22 09:29:32;;;;;;;3.85;1.63;;;;;;;;;;5013082;28;20387;-63
2023/04/22 09:32:10;;;;;;;4.57;1.65;;;;;;;;;;5030638;28;20135;-62
2023/04/22 09:34:50;;;;;;;4.35;1.77;;;;;;;;;;5012381;28;20068;-62
2023/04/22 09:37:29;;;;;;;4.43;1.67;;;;;;;;;;4996105;28;20073;-62
2023/04/22 09:40:18;;;;;;;5.45;1.85;;;;;;;;;;5030837;28;20045;-63
2023/04/22 09:42:52;;;;;;;5.05;1.95;;;;;;;;;;5031084;28;20053;-62
2023/04/22 09:45:40;;;;;;;5.18;1.92;;;;;;;;;;4995867;28;20065;-63
2023/04/22 09:48:16;;;;;;;4.72;1.52;;;;;;;;;;4980030;28;20053;-62
2023/04/22 09:50:48;;;;;;;5.13;1.88;;;;;;;;;;5011981;28;20064;-61
2023/04/22 09:53:20;;;;;;;9.02;2.05;;;;;;;;;;5034946;28;20068;-65
2023/04/22 09:55:54;;;;;;;3.92;1.98;;;;;;;;;;5035098;28;20038;-61
2023/04/22 09:58:26;;;;;;;4.63;1.90;;;;;;;;;;4979797;28;20066;-66
2023/04/22 10:00:58;;;;;;;5.13;2.30;;;;;;;;;;5012477;28;20068;-61
2023/04/22 10:03:32;;;;;;;5.75;2.08;;;;;;;;;;4996083;28;20462;-61
2023/04/22 10:06:03;;;;;;;6.95;2.45;;;;;;;;;;4964033;28;20061;-62
2023/04/22 10:08:34;;;;;;;6.60;2.00;;;;;;;;;;5012881;28;20093;-62
2023/04/22 10:11:04;;;;;;;8.80;2.30;;;;;;;;;;4992550;28;20054;-62
2023/04/22 10:13:35;;;;;;;7.28;2.00;;;;;;;;;;4993039;28;20062;-62
2023/04/22 10:16:05;;;;;;;10.23;2.60;;;;;;;;;;4992881;28;20524;-61
2023/04/22 10:18:39;;;;;;;5.40;2.28;;;;;;;;;;4976645;28;20061;-61
2023/04/22 10:21:10;;;;;;;5.45;2.13;;;;;;;;;;4941201;28;20077;-66
2023/04/22 10:23:46;;;;;;;4.65;2.47;;;;;;;;;;4973178;28;20531;-62
2023/04/22 10:26:39;;;;;;;6.05;2.58;;;;;;;;;;4940851;28;20094;-61
2023/04/22 10:29:17;;;;;;;6.32;2.28;;;;;;;;;;4940751;28;20061;-62
2023/04/22 10:32:03;;;;;;;5.05;2.40;;;;;;;;;;4956777;28;20062;-62
2023/04/22 10:34:36;;;;;;;6.03;3.10;;;;;;;;;;4956982;28;20043;-62
2023/04/22 10:37:08;;;;;;;5.47;2.42;;;;;;;;;;4940545;28;20061;-62
2023/04/22 10:39:40;;;;;;;6.47;2.67;;;;;;;;;;4941242;28;20065;-61
2023/04/22 10:42:11;;;;;;;;;;;;;;;;;;4973281;28;20062;-62
2023/04/22 10:44:54;;;;;;;6.85;2.55;;;;;;;;;;4925327;28;19922;-63
2023/04/22 10:47:44;;;;;;;5.30;2.25;;;;;;;;;;4941204;28;20495;-63
2023/04/22 10:50:26;;;;;;;5.38;2.45;;;;;;;;;;4997141;28;20056;-62
2023/04/22 10:52:58;;;;;;;6.78;2.30;;;;;;;;;;4981649;28;20057;-62
2023/04/22 10:55:52;;;;;;;6.72;2.10;;;;;;;;;;5014146;28;20050;-62
2023/04/22 10:58:24;;;;;;;6.13;2.13;;;;;;;;;;4977642;28;20054;-62
2023/04/22 11:01:01;;;;;;;5.85;2.35;;;;;;;;;;4994431;28;20047;-64
2023/04/22 11:03:31;;;;;;;4.18;2.50;;;;;;;;;;4993173;28;20384;-62
2023/04/22 11:06:22;;;;;;;6.20;2.47;;;;;;;;;;4977451;28;20054;-61
2023/04/22 11:09:11;;;;;;;6.63;2.40;;;;;;;;;;4994322;28;20042;-61
2023/04/22 11:11:41;;;;;;;5.97;2.38;;;;;;;;;;4994074;28;20566;-65
2023/04/22 11:14:11;;;;;;;9.98;4.35;;;;;;;;;;4959696;28;20071;-61
2023/04/22 11:16:46;;;;;;;10.13;4.78;;;;;;;;;;4993984;28;20038;-65
2023/04/22 11:19:16;;;;;;;6.43;3.42;;;;;;;;;;4952721;29;20389;-65
2023/04/22 11:21:47;;;;;;;5.85;3.05;;;;;;;;;;4952599;29;20055;-64
2023/04/22 11:24:20;;;;;;;6.93;2.60;;;;;;;;;;4952814;29;20412;-61
2023/04/22 11:26:55;;;;;;;6.93;2.72;;;;;;;;;;4952525;29;20066;-62
2023/04/22 11:29:26;;;;;;;6.57;2.83;;;;;;;;;;4952830;29;20051;-62
2023/04/22 11:31:57;;;;;;;6.57;2.78;;;;;;;;;;4968574;28;20062;-64
2023/04/22 11:34:28;;;;;;;7.65;2.97;;;;;;;;;;4936675;29;20051;-62
2023/04/22 11:36:58;;;;;;;7.28;2.70;;;;;;;;;;4952317;29;20548;-62
2023/04/22 11:39:36;;;;;;;9.35;2.65;;;;;;;;;;4952554;29;20051;-62
2023/04/22 11:42:23;;;;;;;6.57;2.33;;;;;;;;;;4909783;29;20066;-65
2023/04/22 11:44:53;;;;;;;6.90;1.85;;;;;;;;;;4936185;29;20063;-61
2023/04/22 11:47:23;;;;;;;3.22;1.40;;;;;;;;;;4952148;29;20054;-64
2023/04/22 11:50:08;;;;;;;3.65;1.67;;;;;;;;;;4952042;29;20439;-65
2023/04/22 11:52:47;;;;;;;2.67;1.10;;;;;;;;;;4952293;29;20055;-62
2023/04/22 11:55:20;;;;;;;4.05;1.83;;;;;;;;;;4952087;29;20475;-64
2023/04/22 11:58:07;;;;;;;1.50;1.27;;;;;;;;;;4988184;28;20414;-62
2023/04/22 12:00:43;;;;;;;3.25;0.85;;;;;;;;;;5013067;28;20501;-61
2023/04/22 12:03:27;;;;;;;2.95;1.17;;;;;;;;;;5012884;28;20122;-63
2023/04/22 12:06:00;;;;;;;3.33;1.00;;;;;;;;;;4978226;28;20062;-63
2023/04/22 12:08:31;;;;;;;3.22;1.05;;;;;;;;;;5012696;28;20049;-61
2023/04/22 12:11:07;;;;;;;1.90;1.10;;;;;;;;;;5012854;28;20050;-62
2023/04/22 12:13:37;;;;;;;2.92;0.88;;;;;;;;;;5012414;28;20038;-62
2023/04/22 12:16:16;;;;;;;2.15;0.88;;;;;;;;;;5012314;28;20042;-63
2023/04/22 12:18:54;;;;;;;5.20;0.90;;;;;;;;;;5012706;28;20049;-62
2023/04/22 12:21:27;;;;;;;2.30;1.00;;;;;;;;;;4962012;28;20529;-62
2023/04/22 12:24:09;;;;;;;3.03;1.23;;;;;;;;;;4994154;28;20054;-63
2023/04/22 12:26:40;;;;;;;3.55;0.80;;;;;;;;;;5012528;28;20041;-63
2023/04/22 12:29:11;;;;;;;2.25;0.95;;;;;;;;;;5012296;28;20060;-62
2023/04/22 12:31:41;;;;;;;1.40;0.80;;;;;;;;;;5011377;28;20049;-62
2023/04/22 12:34:11;;;;;;;2.90;1.02;;;;;;;;;;4977524;28;20061;-62
2023/04/22 12:36:41;;;;;;;3.28;1.05;;;;;;;;;;4977128;28;20053;-62
2023/04/22 12:39:11;;;;;;;2.10;1.00;;;;;;;;;;4977491;28;20054;-63
2023/04/22 12:41:41;;;;;;;2.10;0.88;;;;;;;;;;4994947;28;20049;-62
2023/04/22 12:44:11;;;;;;;2.05;1.00;;;;;;;;;;4977631;28;20057;-62
2023/04/22 12:46:41;;;;;;;1.58;0.73;;;;;;;;;;4961083;28;20061;-62
2023/04/22 12:49:13;;;;;;;1.50;0.80;;;;;;;;;;4977386;28;20065;-64
2023/04/22 12:51:43;;;;;;;2.80;1.13;;;;;;;;;;5012063;28;20046;-62
2023/04/22 12:54:13;;;;;;;4.95;0.85;;;;;;;;;;5012109;28;20042;-62
2023/04/22 12:56:45;;;;;;;1.67;0.77;;;;;;;;;;5011956;28;20042;-63
2023/04/22 12:59:15;;;;;;;2.38;0.98;;;;;;;;;;4962027;28;20410;-63
2023/04/22 13:01:45;;;;;;;3.05;1.02;;;;;;;;;;4962295;28;20056;-62
2023/04/22 13:04:17;;;;;;;2.45;0.75;;;;;;;;;;4946477;28;20058;-62
2023/04/22 13:06:54;;;;;;;2.38;1.00;;;;;;;;;;5011862;28;20068;-63
2023/04/22 13:09:25;;;;;;;5.22;1.30;;;;;;;;;;4976939;28;20069;-62
2023/04/22 13:11:57;;;;;;;3.13;1.33;;;;;;;;;;4977069;28;20065;-63
2023/04/22 13:14:27;;;;;;;2.13;1.00;;;;;;;;;;4977429;28;20050;-63
2023/04/22 13:16:57;;;;;;;3.15;0.80;;;;;;;;;;5011078;28;20045;-64
2023/04/22 13:19:28;;;;;;;2.50;1.10;;;;;;;;;;5011506;28;20041;-63
2023/04/22 13:21:58;;;;;;;2.95;0.98;;;;;;;;;;5047620;28;20056;-63
2023/04/22 13:24:28;;;;;;;3.28;0.95;;;;;;;;;;5050841;28;20044;-63
2023/04/22 13:26:59;;;;;;;1.83;0.80;;;;;;;;;;4975588;28;20046;-62
2023/04/22 13:29:29;;;;;;;3.42;1.13;;;;;;;;;;4992374;28;20066;-62
2023/04/22 13:31:59;;;;;;;3.60;1.15;;;;;;;;;;5008564;28;20522;-64
2023/04/22 13:34:29;;;;;;;2.33;0.70;;;;;;;;;;5008937;28;20053;-62
2023/04/22 13:36:59;;;;;;;4.43;0.75;;;;;;;;;;5008764;28;20057;-62
2023/04/22 13:39:30;;;;;;;2.80;1.20;;;;;;;;;;5008468;28;20046;-64
2023/04/22 13:42:00;;;;;;;2.75;1.08;;;;;;;;;;4992164;28;20454;-63
2023/04/22 13:44:31;;;;;;;4.35;0.90;;;;;;;;;;5008743;28;20050;-63
2023/04/22 13:47:01;;;;;;;1.63;0.82;;;;;;;;;;4943646;28;20054;-62
2023/04/22 13:49:32;;;;;;;1.90;0.90;;;;;;;;;;5008724;28;20052;-65
2023/04/22 13:52:02;;;;;;;2.30;0.88;;;;;;;;;;4992284;28;20050;-63
2023/04/22 13:54:32;;;;;;;3.17;1.17;;;;;;;;;;5008454;28;20045;-64
2023/04/22 13:57:02;;;;;;;2.13;0.90;;;;;;;;;;5008192;28;20042;-63
2023/04/22 13:59:35;;;;;;;6.75;0.95;;;;;;;;;;4975975;28;20058;-63
2023/04/22 14:02:05;;;;;;;3.72;0.90;;;;;;;;;;5008407;28;20077;-63
2023/04/22 14:04:35;;;;;;;1.75;0.90;;;;;;;;;;4979007;28;20056;-63
2023/04/22 14:07:05;;;;;;;3.30;1.10;;;;;;;;;;4998559;28;20059;-63
2023/04/22 14:09:35;;;;;;;3.15;1.58;;;;;;;;;;5015385;28;20088;-63
2023/04/22 14:12:07;;;;;;;4.20;1.00;;;;;;;;;;5000287;28;20056;-62
2023/04/22 14:14:37;;;;;;;4.10;1.15;;;;;;;;;;5050478;28;20052;-61
2023/04/22 14:17:07;;;;;;;2.03;1.17;;;;;;;;;;5050186;28;20385;-63
2023/04/22 14:19:38;;;;;;;1.38;1.00;;;;;;;;;;5031512;28;20049;-62
2023/04/22 14:22:09;;;;;;;1.88;0.70;;;;;;;;;;5050209;28;20502;-62
2023/04/22 14:24:39;;;;;;;1.77;0.82;;;;;;;;;;5050531;28;20060;-62
2023/04/22 14:27:09;;;;;;;4.72;0.98;;;;;;;;;;5050451;28;20071;-63
2023/04/22 14:29:40;;;;;;;3.67;1.23;;;;;;;;;;5050302;28;20037;-62
2023/04/22 14:32:11;;;;;;;4.18;0.98;;;;;;;;;;5032840;28;20484;-63
2023/04/22 14:34:41;;;;;;;3.45;1.17;;;;;;;;;;5050451;28;20040;-63
2023/04/22 14:37:11;;;;;;;2.65;1.00;;;;;;;;;;5050349;28;20041;-62
2023/04/22 14:39:41;;;;;;;1.73;0.90;;;;;;;;;;5002194;28;20048;-63
2023/04/22 14:42:12;;;;;;;2.88;0.90;;;;;;;;;;4985994;28;20049;-62
2023/04/22 14:44:42;;;;;;;3.08;0.63;;;;;;;;;;5003701;28;20056;-64
2023/04/22 14:47:12;;;;;;;1.25;0.73;;;;;;;;;;5053578;28;20408;-63
2023/04/22 14:49:42;;;;;;;2.22;0.95;;;;;;;;;;5053916;28;20049;-62
2023/04/22 14:52:12;;;;;;;1.95;0.82;;;;;;;;;;5002317;28;20465;-63
2023/04/22 14:54:42;;;;;;;2.35;0.95;;;;;;;;;;5018582;28;20053;-63
2023/04/22 14:57:12;;;;;;;2.30;0.82;;;;;;;;;;5018243;28;20497;-63
2023/04/22 14:59:45;;;;;;;1.85;0.82;;;;;;;;;;5018663;28;20413;-64
2023/04/22 15:02:15;;;;;;;6.22;1.02;;;;;;;;;;5011267;28;20050;-63
2023/04/22 15:04:45;;;;;;;3.08;0.80;;;;;;;;;;4995589;28;20062;-64
2023/04/22 15:07:15;;;;;;;1.92;0.95;;;;;;;;;;4976313;28;20093;-63
2023/04/22 15:09:45;;;;;;;1.23;0.60;;;;;;;;;;5011405;28;20053;-62